Time;durP1;ratioP1;P1;durP2;ratioP2;P2;SDS_P1;SDS_P2;PMS_P1;PMS_P2;Temp;Humidity;BMP_temperature;BMP_pressure;BME280_temperature;BME280_humidity;BME280_pressure;Samples;Min_cycle;Max_cycle;Signal;HPM_P1;HPM_P2
2022/09/01 00:00:13;;;;;;;;;9.80;8.40;;;;;;;;5021685;28;8926;-74
2022/09/01 00:02:44;;;;;;;;;6.80;6.20;;;;;;;;5023088;28;8876;-74
2022/09/01 00:05:12;;;;;;;;;6.00;6.00;;;;;;;;5024160;28;8895;-74
2022/09/01 00:07:39;;;;;;;;;5.80;5.80;;;;;;;;5018356;28;8878;-74
2022/09/01 00:10:08;;;;;;;;;7.60;6.00;;;;;;;;5023833;28;8892;-74
2022/09/01 00:12:38;;;;;;;;;6.00;6.00;;;;;;;;5024055;28;8849;-75
2022/09/01 00:15:07;;;;;;;;;6.00;6.00;;;;;;;;5022515;28;8896;-74
2022/09/01 00:17:35;;;;;;;;;6.00;6.00;;;;;;;;5023267;28;10153;-74
2022/09/01 00:20:03;;;;;;;;;7.00;7.00;;;;;;;;5023294;28;8878;-74
2022/09/01 00:22:32;;;;;;;;;7.75;7.75;;;;;;;;5024349;28;9686;-74
2022/09/01 00:25:00;;;;;;;;;6.40;6.40;;;;;;;;5023186;28;8873;-74
2022/09/01 00:27:28;;;;;;;;;8.00;8.00;;;;;;;;5023813;28;8873;-74
2022/09/01 00:29:56;;;;;;;;;7.00;7.00;;;;;;;;5005699;28;8883;-74
2022/09/01 00:32:24;;;;;;;;;8.00;6.80;;;;;;;;5020357;28;8815;-74
2022/09/01 00:34:51;;;;;;;;;7.60;6.20;;;;;;;;5023763;28;8902;-74
2022/09/01 00:37:19;;;;;;;;;7.50;7.50;;;;;;;;5022287;28;8872;-74
2022/09/01 00:39:46;;;;;;;;;8.75;7.50;;;;;;;;5023719;28;8911;-74
2022/09/01 00:42:13;;;;;;;;;6.00;6.00;;;;;;;;5022390;28;9712;-74
2022/09/01 00:44:41;;;;;;;;;6.00;6.00;;;;;;;;5023719;28;8876;-74
2022/09/01 00:47:09;;;;;;;;;7.75;7.75;;;;;;;;5023197;28;8852;-74
2022/09/01 00:49:40;;;;;;;;;10.50;8.75;;;;;;;;5023023;28;8881;-74
2022/09/01 00:52:11;;;;;;;;;8.00;6.00;;;;;;;;5020976;28;8877;-75
2022/09/01 00:54:42;;;;;;;;;6.00;6.00;;;;;;;;5022287;28;8861;-74
2022/09/01 00:57:12;;;;;;;;;5.50;5.50;;;;;;;;5023321;28;8891;-74
2022/09/01 00:59:42;;;;;;;;;6.25;6.25;;;;;;;;5021023;28;8884;-74
2022/09/01 01:02:11;;;;;;;;;6.50;6.50;;;;;;;;5021832;28;8833;-74
2022/09/01 01:04:42;;;;;;;;;7.00;7.00;;;;;;;;5006259;28;8880;-74
2022/09/01 01:07:11;;;;;;;;;5.00;5.00;;;;;;;;5021008;28;8907;-75
2022/09/01 01:09:43;;;;;;;;;6.75;5.50;;;;;;;;5023514;28;8881;-74
2022/09/01 01:12:12;;;;;;;;;8.25;8.25;;;;;;;;5014324;28;8860;-74
2022/09/01 01:14:40;;;;;;;;;10.25;9.25;;;;;;;;5022997;28;8856;-74
2022/09/01 01:17:08;;;;;;;;;7.33;6.00;;;;;;;;5014956;28;8912;-74
2022/09/01 01:25:21;;;;;;;;;9.00;7.00;;;;;;;;5006564;28;8959;-74
2022/09/01 01:27:49;;;;;;;;;9.75;8.50;;;;;;;;5023158;28;8902;-74
2022/09/01 01:30:19;;;;;;;;;8.00;8.00;;;;;;;;4987639;28;8950;-74
2022/09/01 01:32:48;;;;;;;;;9.50;8.50;;;;;;;;5022210;28;8978;-75
2022/09/01 01:35:19;;;;;;;;;7.00;7.00;;;;;;;;5022858;28;8934;-74
2022/09/01 01:37:47;;;;;;;;;7.25;6.25;;;;;;;;5019918;28;9662;-74
2022/09/01 01:40:19;;;;;;;;;5.25;5.25;;;;;;;;5022784;28;10943;-74
2022/09/01 01:42:48;;;;;;;;;7.00;7.00;;;;;;;;5016750;28;8880;-77
2022/09/01 01:45:17;;;;;;;;;6.75;6.75;;;;;;;;5022458;28;8946;-75
2022/09/01 01:47:52;;;;;;;;;5.00;5.00;;;;;;;;5022152;28;8869;-74
2022/09/01 01:50:20;;;;;;;;;9.50;8.00;;;;;;;;5021897;28;9024;-75
2022/09/01 01:52:47;;;;;;;;;7.00;7.00;;;;;;;;5022895;28;8910;-75
2022/09/01 01:55:18;;;;;;;;;6.75;6.75;;;;;;;;5021254;28;8898;-76
2022/09/01 01:57:48;;;;;;;;;8.50;8.50;;;;;;;;5000781;28;8892;-74
2022/09/01 02:00:18;;;;;;;;;8.00;6.75;;;;;;;;5019385;28;9984;-74
2022/09/01 02:02:51;;;;;;;;;5.50;5.50;;;;;;;;5023027;28;8876;-74
2022/09/01 02:05:23;;;;;;;;;6.00;6.00;;;;;;;;5022289;28;8852;-74
2022/09/01 02:07:54;;;;;;;;;7.00;7.00;;;;;;;;5021797;28;8881;-75
2022/09/01 02:10:23;;;;;;;;;6.75;6.75;;;;;;;;5006273;28;8852;-75
2022/09/01 02:12:52;;;;;;;;;7.00;7.00;;;;;;;;5021455;28;8873;-74
2022/09/01 02:15:20;;;;;;;;;7.50;7.50;;;;;;;;5023751;28;8921;-74
2022/09/01 02:17:47;;;;;;;;;7.25;6.75;;;;;;;;5025153;28;9654;-75
2022/09/01 02:20:15;;;;;;;;;7.00;7.00;;;;;;;;5026370;28;8922;-74
2022/09/01 02:22:44;;;;;;;;;7.75;7.75;;;;;;;;5026510;28;8938;-74
2022/09/01 02:25:15;;;;;;;;;9.75;8.25;;;;;;;;5025109;28;8903;-74
2022/09/01 02:27:43;;;;;;;;;6.50;6.50;;;;;;;;5026165;28;9425;-74
2022/09/01 02:30:13;;;;;;;;;6.25;6.25;;;;;;;;5007061;28;8892;-74
2022/09/01 02:32:41;;;;;;;;;9.25;9.25;;;;;;;;5022937;28;9820;-74
2022/09/01 02:35:10;;;;;;;;;8.50;8.50;;;;;;;;5024453;28;9618;-74
2022/09/01 02:37:38;;;;;;;;;7.25;7.25;;;;;;;;5021304;28;9672;-74
2022/09/01 02:40:09;;;;;;;;;6.00;4.75;;;;;;;;5025796;28;9648;-74
2022/09/01 02:42:41;;;;;;;;;10.00;8.50;;;;;;;;5024966;28;8853;-74
2022/09/01 02:45:15;;;;;;;;;6.25;6.25;;;;;;;;5025771;28;9793;-74
2022/09/01 02:47:45;;;;;;;;;6.25;6.25;;;;;;;;5024485;28;8864;-74
2022/09/01 02:50:17;;;;;;;;;7.00;6.00;;;;;;;;5020441;28;9290;-74
2022/09/01 02:52:47;;;;;;;;;8.00;8.00;;;;;;;;5025130;28;8861;-74
2022/09/01 02:55:19;;;;;;;;;10.00;7.25;;;;;;;;5011852;28;8930;-75
2022/09/01 02:57:47;;;;;;;;;7.50;7.50;;;;;;;;5024293;28;8856;-74
2022/09/01 03:00:21;;;;;;;;;7.50;6.50;;;;;;;;5023954;28;8924;-74
2022/09/01 03:02:52;;;;;;;;;7.25;6.00;;;;;;;;5024365;28;8869;-74
2022/09/01 03:05:24;;;;;;;;;10.50;7.00;;;;;;;;5024463;28;8884;-74
2022/09/01 03:07:55;;;;;;;;;5.50;5.50;;;;;;;;5013582;28;8872;-74
2022/09/01 03:10:29;;;;;;;;;9.25;7.75;;;;;;;;5007950;28;8925;-74
2022/09/01 03:12:56;;;;;;;;;8.50;6.25;;;;;;;;5023859;28;8892;-74
2022/09/01 03:15:26;;;;;;;;;7.25;7.25;;;;;;;;5007875;28;8852;-74
2022/09/01 03:17:53;;;;;;;;;7.00;7.00;;;;;;;;5023804;28;8930;-74
2022/09/01 03:20:20;;;;;;;;;8.75;7.25;;;;;;;;5026039;28;9002;-74
2022/09/01 03:22:49;;;;;;;;;9.00;7.75;;;;;;;;5023924;28;8906;-74
2022/09/01 03:25:17;;;;;;;;;5.50;5.50;;;;;;;;5020848;28;8915;-74
2022/09/01 03:27:46;;;;;;;;;7.75;5.75;;;;;;;;5023682;28;8867;-74
2022/09/01 03:30:14;;;;;;;;;9.00;8.00;;;;;;;;5023802;28;8881;-74
2022/09/01 03:32:43;;;;;;;;;7.00;7.00;;;;;;;;5024681;28;8966;-74
2022/09/01 03:35:11;;;;;;;;;6.50;6.50;;;;;;;;5023822;28;8882;-74
2022/09/01 03:37:43;;;;;;;;;8.25;8.25;;;;;;;;5024893;28;8860;-74
2022/09/01 03:40:11;;;;;;;;;7.00;7.00;;;;;;;;5023549;28;8879;-75
2022/09/01 03:42:39;;;;;;;;;7.25;7.25;;;;;;;;5024768;28;8892;-75
2022/09/01 03:45:11;;;;;;;;;7.00;7.00;;;;;;;;5024356;28;8859;-74
2022/09/01 03:47:39;;;;;;;;;8.00;8.00;;;;;;;;5023142;28;9785;-74
2022/09/01 03:50:16;;;;;;;;;6.00;6.00;;;;;;;;5025269;28;9906;-74
2022/09/01 03:52:44;;;;;;;;;8.50;8.50;;;;;;;;5016496;28;8873;-76
2022/09/01 03:55:11;;;;;;;;;8.00;8.00;;;;;;;;5024630;28;8896;-74
2022/09/01 03:57:41;;;;;;;;;9.00;9.00;;;;;;;;5017736;28;8871;-74
2022/09/01 04:00:21;;;;;;;;;8.25;8.25;;;;;;;;5022886;28;9704;-75
2022/09/01 04:02:49;;;;;;;;;8.75;8.75;;;;;;;;5024246;28;8910;-74
2022/09/01 04:05:21;;;;;;;;;7.00;7.00;;;;;;;;5023076;28;8899;-74
2022/09/01 04:07:49;;;;;;;;;8.50;8.50;;;;;;;;5024757;28;8864;-74
2022/09/01 04:10:17;;;;;;;;;8.50;8.50;;;;;;;;5023076;28;8880;-74
2022/09/01 04:12:45;;;;;;;;;8.75;8.75;;;;;;;;5024215;28;9662;-74
2022/09/01 04:15:13;;;;;;;;;8.75;8.75;;;;;;;;5023390;28;8967;-74
2022/09/01 04:20:27;;;;;;;;;9.00;8.00;;;;;;;;5019155;28;8828;-74
2022/09/01 04:22:56;;;;;;;;;9.25;9.25;;;;;;;;5023176;28;8892;-74
2022/09/01 04:25:24;;;;;;;;;7.75;7.75;;;;;;;;5017939;28;8871;-74
2022/09/01 04:27:54;;;;;;;;;9.00;9.00;;;;;;;;5022531;28;8942;-74
2022/09/01 04:30:23;;;;;;;;;8.75;8.75;;;;;;;;5023386;28;9756;-76
2022/09/01 04:32:54;;;;;;;;;7.25;7.00;;;;;;;;5035767;28;8869;-74
2022/09/01 04:35:31;;;;;;;;;4.25;4.25;;;;;;;;5006087;28;8993;-74
2022/09/01 04:38:00;;;;;;;;;7.75;7.75;;;;;;;;5019853;28;9649;-74
2022/09/01 04:40:27;;;;;;;;;9.25;9.25;;;;;;;;5022381;28;8942;-74
2022/09/01 04:42:55;;;;;;;;;7.25;7.25;;;;;;;;5023603;28;8898;-74
2022/09/01 04:45:28;;;;;;;;;10.00;8.25;;;;;;;;5021442;28;9085;-75
2022/09/01 04:47:57;;;;;;;;;13.00;9.00;;;;;;;;5002046;28;9003;-74
2022/09/01 04:50:26;;;;;;;;;9.25;8.50;;;;;;;;5022928;28;8865;-74
2022/09/01 04:52:53;;;;;;;;;10.50;10.50;;;;;;;;5022823;28;8868;-74
2022/09/01 04:55:23;;;;;;;;;11.00;11.00;;;;;;;;5023278;28;8944;-76
2022/09/01 04:57:51;;;;;;;;;9.00;9.00;;;;;;;;5021816;28;8888;-75
2022/09/01 05:00:24;;;;;;;;;8.75;8.75;;;;;;;;5011477;28;8917;-75
2022/09/01 05:02:52;;;;;;;;;8.75;8.75;;;;;;;;5022708;28;8891;-73
2022/09/01 05:05:21;;;;;;;;;10.50;9.75;;;;;;;;5021097;28;8887;-74
2022/09/01 05:07:51;;;;;;;;;8.00;8.00;;;;;;;;5021245;28;8955;-74
2022/09/01 05:10:21;;;;;;;;;9.00;8.25;;;;;;;;5022513;28;8951;-75
2022/09/01 05:12:51;;;;;;;;;6.50;6.50;;;;;;;;5023548;28;8880;-74
2022/09/01 05:15:19;;;;;;;;;12.25;9.25;;;;;;;;5006402;28;8908;-76
2022/09/01 05:17:48;;;;;;;;;10.50;8.75;;;;;;;;5023118;28;8873;-74
2022/09/01 05:20:15;;;;;;;;;11.75;11.00;;;;;;;;5023446;28;8868;-74
2022/09/01 05:22:43;;;;;;;;;10.00;10.00;;;;;;;;5022153;28;8884;-75
2022/09/01 05:25:13;;;;;;;;;9.25;9.25;;;;;;;;5023350;28;8844;-74
2022/09/01 05:27:48;;;;;;;;;7.00;7.00;;;;;;;;5022134;28;8894;-74
2022/09/01 05:30:16;;;;;;;;;7.75;7.75;;;;;;;;5023177;28;8888;-74
2022/09/01 05:32:47;;;;;;;;;7.25;7.25;;;;;;;;5020357;28;8983;-75
2022/09/01 05:35:16;;;;;;;;;7.25;7.25;;;;;;;;5023262;28;8868;-74
2022/09/01 05:37:43;;;;;;;;;9.50;9.50;;;;;;;;5020435;28;8857;-75
2022/09/01 05:40:14;;;;;;;;;8.25;8.25;;;;;;;;5016613;28;9630;-75
2022/09/01 05:42:44;;;;;;;;;9.25;9.25;;;;;;;;5015545;28;8852;-75
2022/09/01 05:45:13;;;;;;;;;10.00;10.00;;;;;;;;5015114;28;8877;-80
2022/09/01 05:47:40;;;;;;;;;12.00;10.50;;;;;;;;5023203;28;8884;-75
2022/09/01 05:50:09;;;;;;;;;11.25;11.00;;;;;;;;5025004;28;8881;-75
2022/09/01 05:52:39;;;;;;;;;9.00;9.00;;;;;;;;5011202;28;8856;-73
2022/09/01 05:55:09;;;;;;;;;7.75;7.75;;;;;;;;5026807;28;8860;-73
2022/09/01 05:57:38;;;;;;;;;10.00;7.75;;;;;;;;5028659;28;8899;-75
2022/09/01 06:00:11;;;;;;;;;9.50;9.50;;;;;;;;5025573;28;8840;-74
2022/09/01 06:02:39;;;;;;;;;12.50;10.75;;;;;;;;5025595;28;8875;-77
2022/09/01 06:05:07;;;;;;;;;9.75;9.75;;;;;;;;5027123;28;8895;-78
2022/09/01 06:07:41;;;;;;;;;10.75;8.75;;;;;;;;5025707;28;8879;-76
2022/09/01 06:10:09;;;;;;;;;9.75;9.75;;;;;;;;5009892;28;8934;-74
2022/09/01 06:12:37;;;;;;;;;11.00;11.00;;;;;;;;5022853;28;8862;-75
2022/09/01 06:15:14;;;;;;;;;10.50;9.00;;;;;;;;5025144;28;9754;-75
2022/09/01 06:17:42;;;;;;;;;11.50;11.50;;;;;;;;5021939;28;8942;-76
2022/09/01 06:20:10;;;;;;;;;11.50;11.50;;;;;;;;5024891;28;9019;-77
2022/09/01 06:22:38;;;;;;;;;11.75;8.50;;;;;;;;5026343;28;8985;-79
2022/09/01 06:25:07;;;;;;;;;9.00;8.00;;;;;;;;5025288;28;8872;-78
2022/09/01 06:27:37;;;;;;;;;10.75;9.75;;;;;;;;5025121;28;8853;-75
2022/09/01 06:30:13;;;;;;;;;9.75;8.50;;;;;;;;5021794;28;8947;-78
2022/09/01 06:32:42;;;;;;;;;9.00;9.00;;;;;;;;5024590;28;8901;-74
2022/09/01 06:35:12;;;;;;;;;11.50;8.00;;;;;;;;5024954;28;8871;-77
2022/09/01 06:37:42;;;;;;;;;11.00;11.00;;;;;;;;5023976;28;8880;-75
2022/09/01 06:40:15;;;;;;;;;10.00;10.00;;;;;;;;5024838;28;9014;-75
2022/09/01 06:42:43;;;;;;;;;11.00;11.00;;;;;;;;5024860;28;8891;-73
2022/09/01 06:45:13;;;;;;;;;14.25;13.50;;;;;;;;5023627;28;8880;-78
2022/09/01 06:47:43;;;;;;;;;11.50;11.00;;;;;;;;5023518;28;9452;-78
2022/09/01 06:50:12;;;;;;;;;11.25;11.25;;;;;;;;5021696;28;9847;-78
2022/09/01 06:52:41;;;;;;;;;11.50;11.50;;;;;;;;5024078;28;8867;-78
2022/09/01 06:55:10;;;;;;;;;7.75;7.75;;;;;;;;5025070;28;8975;-84
2022/09/01 06:57:38;;;;;;;;;10.00;10.00;;;;;;;;5028243;28;8891;-83
2022/09/01 07:00:16;;;;;;;;;10.75;10.75;;;;;;;;5023914;28;8928;-81
2022/09/01 07:02:44;;;;;;;;;11.00;10.00;;;;;;;;5023105;28;8868;-76
2022/09/01 07:05:13;;;;;;;;;10.00;10.00;;;;;;;;5021220;28;8872;-86
2022/09/01 07:07:41;;;;;;;;;10.75;10.75;;;;;;;;5022841;28;8891;-75
2022/09/01 07:10:09;;;;;;;;;12.25;9.00;;;;;;;;5024124;28;8884;-75
2022/09/01 07:12:40;;;;;;;;;11.00;11.00;;;;;;;;5004914;28;8868;-74
2022/09/01 07:15:08;;;;;;;;;12.25;12.00;;;;;;;;5012163;28;8876;-79
2022/09/01 07:17:40;;;;;;;;;13.75;11.25;;;;;;;;5024520;28;8857;-80
2022/09/01 07:20:11;;;;;;;;;11.00;10.75;;;;;;;;5027077;28;8859;-79
2022/09/01 07:22:39;;;;;;;;;9.00;9.00;;;;;;;;5029053;28;8848;-81
2022/09/01 07:25:11;;;;;;;;;11.25;10.25;;;;;;;;5023623;28;8933;-78
2022/09/01 07:27:39;;;;;;;;;10.25;10.25;;;;;;;;5023056;28;8878;-79
2022/09/01 07:30:08;;;;;;;;;9.25;9.25;;;;;;;;5004129;28;8864;-74
2022/09/01 07:32:38;;;;;;;;;11.75;11.00;;;;;;;;5022628;28;8974;-88
2022/09/01 07:35:07;;;;;;;;;8.00;8.00;;;;;;;;5023148;28;9915;-81
2022/09/01 07:37:36;;;;;;;;;9.75;9.75;;;;;;;;5022669;28;8911;-78
2022/09/01 07:40:06;;;;;;;;;9.75;9.75;;;;;;;;5021469;28;8942;-80
2022/09/01 07:42:34;;;;;;;;;11.00;11.00;;;;;;;;5021486;28;8872;-79
2022/09/01 07:45:05;;;;;;;;;12.25;10.75;;;;;;;;5021517;28;9015;-76
2022/09/01 07:47:35;;;;;;;;;12.00;11.50;;;;;;;;5020731;28;8907;-82
2022/09/01 07:50:07;;;;;;;;;9.50;9.00;;;;;;;;5024517;28;8943;-79
2022/09/01 07:52:41;;;;;;;;;12.00;12.00;;;;;;;;5022069;28;8866;-79
2022/09/01 07:55:11;;;;;;;;;11.40;11.00;;;;;;;;5019282;28;8935;-75
2022/09/01 07:57:41;;;;;;;;;11.00;11.00;;;;;;;;5022381;28;9006;-77
2022/09/01 08:00:10;;;;;;;;;14.00;12.80;;;;;;;;5019198;28;8833;-76
2022/09/01 08:02:38;;;;;;;;;13.75;12.00;;;;;;;;5019614;28;8888;-78
2022/09/01 08:05:08;;;;;;;;;12.00;10.80;;;;;;;;5006058;28;9698;-75
2022/09/01 08:07:37;;;;;;;;;11.00;9.50;;;;;;;;5021496;28;8876;-77
2022/09/01 08:10:06;;;;;;;;;9.20;9.20;;;;;;;;5021580;28;8848;-77
2022/09/01 08:12:34;;;;;;;;;11.80;10.20;;;;;;;;5019953;28;8864;-74
2022/09/01 08:15:02;;;;;;;;;10.40;10.40;;;;;;;;5021657;28;8833;-75
2022/09/01 08:17:29;;;;;;;;;11.60;11.60;;;;;;;;5018339;28;8881;-77
2022/09/01 08:19:56;;;;;;;;;10.00;10.00;;;;;;;;5024169;28;8881;-84
2022/09/01 08:22:24;;;;;;;;;12.60;10.00;;;;;;;;5023104;28;8987;-75
2022/09/01 08:24:53;;;;;;;;;11.20;11.20;;;;;;;;5018583;28;8874;-82
2022/09/01 08:27:21;;;;;;;;;9.80;9.80;;;;;;;;5020633;28;9010;-78
2022/09/01 08:29:48;;;;;;;;;12.20;10.20;;;;;;;;5014198;28;8865;-75
2022/09/01 08:32:16;;;;;;;;;8.20;8.20;;;;;;;;5010371;28;8821;-80
2022/09/01 08:34:43;;;;;;;;;10.20;10.20;;;;;;;;5010643;28;8877;-78
2022/09/01 08:37:10;;;;;;;;;8.60;8.60;;;;;;;;5021333;28;8884;-74
2022/09/01 08:39:38;;;;;;;;;11.40;10.40;;;;;;;;5020227;28;8923;-75
2022/09/01 08:42:13;;;;;;;;;9.60;9.60;;;;;;;;5021831;28;8999;-78
2022/09/01 08:44:54;;;;;;;;;7.80;7.80;;;;;;;;5019254;28;8898;-76
2022/09/01 08:47:21;;;;;;;;;8.80;8.80;;;;;;;;5012318;28;8865;-75
2022/09/01 08:49:50;;;;;;;;;8.00;8.00;;;;;;;;5013939;28;8874;-77
2022/09/01 08:52:22;;;;;;;;;10.60;8.40;;;;;;;;5018861;28;8861;-75
2022/09/01 08:54:52;;;;;;;;;9.40;9.40;;;;;;;;5014299;28;8931;-81
2022/09/01 08:57:24;;;;;;;;;11.00;9.60;;;;;;;;5022049;28;8962;-84
2022/09/01 08:59:52;;;;;;;;;9.40;9.40;;;;;;;;5022401;28;8875;-84
2022/09/01 09:02:31;;;;;;;;;10.00;10.00;;;;;;;;5020212;28;8805;-84
2022/09/01 09:05:05;;;;;;;;;7.40;7.40;;;;;;;;5020471;28;8879;-83
2022/09/01 09:07:46;;;;;;;;;10.80;9.40;;;;;;;;5002070;28;8881;-84
2022/09/01 09:10:18;;;;;;;;;9.40;9.40;;;;;;;;5021696;28;8911;-76
2022/09/01 09:13:01;;;;;;;;;9.40;8.20;;;;;;;;5021962;28;8864;-78
2022/09/01 09:15:36;;;;;;;;;8.60;8.60;;;;;;;;5022280;28;8869;-82
2022/09/01 09:18:13;;;;;;;;;8.80;8.80;;;;;;;;5019987;28;8888;-85
2022/09/01 09:20:42;;;;;;;;;9.00;9.00;;;;;;;;5021941;28;8974;-81
2022/09/01 09:23:17;;;;;;;;;8.20;8.20;;;;;;;;5021852;28;8865;-81
2022/09/01 09:25:44;;;;;;;;;6.60;6.60;;;;;;;;5012475;28;8896;-83
2022/09/01 09:28:13;;;;;;;;;9.20;9.00;;;;;;;;5022406;28;8883;-75
2022/09/01 09:30:40;;;;;;;;;9.80;9.80;;;;;;;;5021762;28;9099;-78
2022/09/01 09:33:11;;;;;;;;;9.00;9.00;;;;;;;;5024869;28;8978;-79
2022/09/01 09:35:39;;;;;;;;;8.40;7.40;;;;;;;;5019603;28;8924;-78
2022/09/01 09:38:29;;;;;;;;;9.80;9.80;;;;;;;;5022746;28;8872;-82
2022/09/01 09:40:58;;;;;;;;;10.00;9.60;;;;;;;;5021001;28;8864;-77
2022/09/01 09:43:29;;;;;;;;;9.60;9.60;;;;;;;;5022790;28;8891;-77
2022/09/01 09:46:22;;;;;;;;;7.20;7.20;;;;;;;;5020727;28;9509;-75
2022/09/01 09:48:50;;;;;;;;;7.00;7.00;;;;;;;;5017648;28;8881;-81
2022/09/01 09:51:21;;;;;;;;;9.20;9.20;;;;;;;;5022853;28;9736;-78
2022/09/01 09:53:49;;;;;;;;;9.40;9.00;;;;;;;;5020184;28;8884;-77
2022/09/01 09:56:19;;;;;;;;;6.60;6.60;;;;;;;;5021489;28;9048;-75
2022/09/01 09:58:48;;;;;;;;;8.80;8.80;;;;;;;;5022546;28;8942;-75
2022/09/01 10:01:30;;;;;;;;;10.40;8.80;;;;;;;;5020950;28;8808;-75
2022/09/01 10:03:58;;;;;;;;;9.60;7.80;;;;;;;;5012305;28;8885;-77
2022/09/01 10:06:34;;;;;;;;;13.60;10.80;;;;;;;;5020913;28;8864;-78
2022/09/01 10:09:03;;;;;;;;;10.20;9.20;;;;;;;;5022369;28;8880;-78
2022/09/01 10:11:37;;;;;;;;;10.60;10.60;;;;;;;;5019795;28;9010;-76
2022/09/01 10:14:08;;;;;;;;;10.00;10.00;;;;;;;;5018524;28;8873;-76
2022/09/01 10:16:38;;;;;;;;;9.80;9.80;;;;;;;;5022486;28;8864;-77
2022/09/01 10:19:08;;;;;;;;;10.80;9.80;;;;;;;;5020254;28;8880;-77
2022/09/01 10:21:38;;;;;;;;;9.40;8.60;;;;;;;;5022183;28;8860;-76
2022/09/01 10:24:16;;;;;;;;;10.20;10.20;;;;;;;;5020306;28;8872;-76
2022/09/01 10:26:46;;;;;;;;;7.80;7.80;;;;;;;;5021784;28;8926;-77
2022/09/01 10:29:18;;;;;;;;;9.80;9.80;;;;;;;;5017401;28;8880;-76
2022/09/01 10:31:45;;;;;;;;;8.40;8.40;;;;;;;;5018798;28;8979;-76
2022/09/01 10:34:16;;;;;;;;;9.40;9.40;;;;;;;;5021796;28;8844;-75
2022/09/01 10:36:46;;;;;;;;;9.20;9.20;;;;;;;;5023088;28;8999;-75
2022/09/01 10:39:15;;;;;;;;;9.40;9.40;;;;;;;;5025662;28;8876;-77
2022/09/01 10:41:51;;;;;;;;;7.80;7.80;;;;;;;;5024854;28;8962;-77
2022/09/01 10:44:25;;;;;;;;;8.80;8.80;;;;;;;;5024684;28;8879;-76
2022/09/01 10:46:53;;;;;;;;;8.40;8.40;;;;;;;;5023591;28;8892;-75
2022/09/01 10:49:37;;;;;;;;;7.00;7.00;;;;;;;;5023664;28;8869;-78
2022/09/01 10:52:04;;;;;;;;;10.40;9.20;;;;;;;;5025142;28;8864;-77
2022/09/01 10:54:52;;;;;;;;;9.40;9.40;;;;;;;;5024040;28;9630;-77
2022/09/01 10:57:38;;;;;;;;;7.00;7.00;;;;;;;;5026400;28;8869;-75
2022/09/01 11:00:43;;;;;;;;;10.20;9.80;;;;;;;;5024456;28;8971;-75
2022/09/01 11:03:59;;;;;;;;;8.40;8.40;;;;;;;;5022468;28;8962;-75
2022/09/01 11:06:53;;;;;;;;;8.40;8.40;;;;;;;;5021049;28;8868;-76
2022/09/01 11:09:26;;;;;;;;;8.20;8.20;;;;;;;;5020282;28;9006;-75
2022/09/01 11:12:15;;;;;;;;;7.80;7.80;;;;;;;;5024190;28;8975;-76
2022/09/01 11:14:50;;;;;;;;;7.00;7.00;;;;;;;;5023871;28;8869;-75
2022/09/01 11:17:23;;;;;;;;;10.80;10.80;;;;;;;;5010931;28;8868;-75
2022/09/01 11:20:10;;;;;;;;;8.00;8.00;;;;;;;;5022870;28;8872;-77
2022/09/01 11:22:40;;;;;;;;;8.20;8.20;;;;;;;;5021199;28;8890;-76
2022/09/01 11:25:39;;;;;;;;;4.60;4.20;;;;;;;;5023274;28;8880;-76
2022/09/01 11:28:43;;;;;;;;;4.80;4.80;;;;;;;;4947099;28;8907;-75
2022/09/01 11:31:26;;;;;;;;;8.20;8.00;;;;;;;;5023929;28;8832;-75
2022/09/01 11:34:23;;;;;;;;;7.00;7.00;;;;;;;;5023421;28;8958;-75
2022/09/01 11:36:57;;;;;;;;;5.20;5.20;;;;;;;;4979526;28;8885;-75
2022/09/01 11:39:41;;;;;;;;;9.80;7.80;;;;;;;;5015637;28;8867;-73
2022/09/01 11:42:13;;;;;;;;;5.00;5.00;;;;;;;;5020505;28;9642;-74
2022/09/01 11:44:45;;;;;;;;;6.60;6.40;;;;;;;;5025197;28;8934;-74
2022/09/01 11:47:15;;;;;;;;;4.60;4.20;;;;;;;;5023188;28;8884;-74
2022/09/01 11:49:50;;;;;;;;;9.00;8.40;;;;;;;;5025551;28;8917;-74
2022/09/01 11:52:20;;;;;;;;;5.20;5.20;;;;;;;;5025720;28;8887;-74
2022/09/01 11:54:49;;;;;;;;;7.00;7.00;;;;;;;;5021297;28;9323;-74
2022/09/01 11:57:23;;;;;;;;;7.80;5.40;;;;;;;;5026067;28;8892;-75
2022/09/01 11:59:51;;;;;;;;;5.80;5.80;;;;;;;;5022958;28;8895;-75
2022/09/01 12:02:21;;;;;;;;;6.40;5.80;;;;;;;;5023371;28;8832;-74
2022/09/01 12:04:50;;;;;;;;;6.80;6.80;;;;;;;;5023084;28;8970;-74
2022/09/01 12:07:27;;;;;;;;;8.80;7.00;;;;;;;;5022832;28;8887;-75
2022/09/01 12:09:56;;;;;;;;;7.80;7.80;;;;;;;;5022186;28;9612;-75
2022/09/01 12:12:33;;;;;;;;;7.20;7.20;;;;;;;;5022661;28;9000;-75
2022/09/01 12:15:02;;;;;;;;;5.80;5.80;;;;;;;;5024950;28;8879;-75
2022/09/01 12:17:29;;;;;;;;;7.80;7.80;;;;;;;;5022103;28;8882;-76
2022/09/01 12:19:59;;;;;;;;;6.60;6.60;;;;;;;;5023265;28;8876;-76
2022/09/01 12:22:26;;;;;;;;;6.20;6.20;;;;;;;;5022534;28;8895;-76
2022/09/01 12:24:56;;;;;;;;;7.20;7.00;;;;;;;;5021769;28;8873;-77
2022/09/01 12:27:23;;;;;;;;;7.40;6.20;;;;;;;;5016722;28;9662;-77
2022/09/01 12:29:51;;;;;;;;;5.60;5.60;;;;;;;;5022776;28;8904;-76
2022/09/01 12:32:18;;;;;;;;;7.00;7.00;;;;;;;;5023546;28;8856;-76
2022/09/01 12:34:48;;;;;;;;;5.40;5.40;;;;;;;;5023186;28;8884;-76
2022/09/01 12:37:22;;;;;;;;;5.60;5.60;;;;;;;;5024114;28;9017;-76
2022/09/01 12:39:50;;;;;;;;;2.20;2.20;;;;;;;;5023906;28;8856;-76
2022/09/01 12:42:28;;;;;;;;;6.00;6.00;;;;;;;;5023542;28;9046;-76
2022/09/01 12:44:58;;;;;;;;;6.00;6.00;;;;;;;;5022556;28;8876;-76
2022/09/01 12:47:47;;;;;;;;;8.20;8.20;;;;;;;;5022298;28;8938;-76
2022/09/01 12:50:46;;;;;;;;;6.80;6.80;;;;;;;;5023961;28;8884;-76
2022/09/01 12:53:32;;;;;;;;;6.00;6.00;;;;;;;;5024315;28;8931;-76
2022/09/01 12:56:07;;;;;;;;;7.60;7.60;;;;;;;;5020458;28;9015;-77
2022/09/01 12:58:35;;;;;;;;;6.00;4.20;;;;;;;;5023324;28;8877;-76
2022/09/01 13:01:06;;;;;;;;;8.40;6.00;;;;;;;;5021471;28;8830;-76
2022/09/01 13:03:34;;;;;;;;;7.00;6.80;;;;;;;;5023457;28;8876;-76
2022/09/01 13:06:03;;;;;;;;;8.20;8.20;;;;;;;;5024034;28;8967;-76
2022/09/01 13:08:32;;;;;;;;;6.60;5.80;;;;;;;;5022387;28;8856;-77
2022/09/01 13:11:04;;;;;;;;;7.40;7.40;;;;;;;;5023834;28;8872;-77
2022/09/01 13:13:34;;;;;;;;;6.00;6.00;;;;;;;;5022356;28;8953;-76
2022/09/01 13:16:11;;;;;;;;;6.00;6.00;;;;;;;;5023433;28;8954;-77
2022/09/01 13:18:39;;;;;;;;;5.60;5.60;;;;;;;;5008762;28;8874;-77
2022/09/01 13:21:07;;;;;;;;;6.60;6.60;;;;;;;;5021091;28;8889;-77
2022/09/01 13:23:35;;;;;;;;;6.00;6.00;;;;;;;;5023765;28;8867;-76
2022/09/01 13:26:03;;;;;;;;;5.20;4.00;;;;;;;;5021825;28;9028;-76
2022/09/01 13:28:31;;;;;;;;;6.00;6.00;;;;;;;;5021347;28;8902;-76
2022/09/01 13:31:00;;;;;;;;;5.80;5.80;;;;;;;;5021352;28;8817;-77
2022/09/01 13:33:32;;;;;;;;;5.20;5.20;;;;;;;;5023416;28;8887;-75
2022/09/01 13:35:59;;;;;;;;;7.80;7.00;;;;;;;;5018520;28;8844;-76
2022/09/01 13:38:27;;;;;;;;;6.00;4.80;;;;;;;;5021910;28;8903;-76
2022/09/01 13:40:55;;;;;;;;;6.20;6.20;;;;;;;;5020873;28;8869;-76
2022/09/01 13:43:25;;;;;;;;;6.00;6.00;;;;;;;;5022135;28;8986;-76
2022/09/01 13:45:53;;;;;;;;;2.20;2.20;;;;;;;;5022831;28;8872;-76
2022/09/01 13:48:23;;;;;;;;;6.00;6.00;;;;;;;;5022134;28;8876;-77
2022/09/01 13:50:52;;;;;;;;;5.80;5.80;;;;;;;;5023607;28;8860;-76
2022/09/01 13:53:20;;;;;;;;;5.20;5.20;;;;;;;;5022362;28;8899;-76
2022/09/01 13:55:49;;;;;;;;;3.00;3.00;;;;;;;;5012154;28;8888;-76
2022/09/01 13:58:16;;;;;;;;;5.00;5.00;;;;;;;;5023136;28;9697;-75
2022/09/01 14:00:47;;;;;;;;;5.80;5.80;;;;;;;;5021882;28;8804;-76
2022/09/01 14:03:18;;;;;;;;;10.00;7.80;;;;;;;;5022868;28;8872;-77
2022/09/01 14:05:47;;;;;;;;;7.00;5.60;;;;;;;;5022257;28;8880;-77
2022/09/01 14:08:19;;;;;;;;;4.20;4.20;;;;;;;;5022684;28;8880;-76
2022/09/01 14:10:49;;;;;;;;;5.20;5.20;;;;;;;;5022140;28;8892;-76
2022/09/01 14:13:17;;;;;;;;;6.00;6.00;;;;;;;;5026250;28;8962;-77
2022/09/01 14:15:45;;;;;;;;;6.00;6.00;;;;;;;;5027080;28;9071;-76
2022/09/01 14:18:14;;;;;;;;;5.80;5.80;;;;;;;;5025439;28;8887;-76
2022/09/01 14:20:44;;;;;;;;;7.00;7.00;;;;;;;;5027577;28;8877;-77
2022/09/01 14:23:12;;;;;;;;;5.20;5.20;;;;;;;;5026076;28;8864;-76
2022/09/01 14:25:46;;;;;;;;;2.60;2.60;;;;;;;;5027138;28;9637;-76
2022/09/01 14:28:14;;;;;;;;;4.80;4.80;;;;;;;;5024106;28;8871;-76
2022/09/01 14:30:42;;;;;;;;;5.20;5.20;;;;;;;;5024692;28;8840;-76
2022/09/01 14:33:11;;;;;;;;;7.80;4.80;;;;;;;;5026691;28;8896;-76
2022/09/01 14:35:39;;;;;;;;;4.60;4.60;;;;;;;;5025014;28;8907;-75
2022/09/01 14:38:07;;;;;;;;;7.40;7.20;;;;;;;;5024420;28;8891;-75
2022/09/01 14:40:36;;;;;;;;;5.20;5.20;;;;;;;;5025760;28;8894;-75
2022/09/01 14:43:05;;;;;;;;;6.80;6.80;;;;;;;;5023343;28;8884;-76
2022/09/01 14:45:33;;;;;;;;;6.60;5.80;;;;;;;;5026449;28;8990;-75
2022/09/01 14:48:01;;;;;;;;;6.20;6.20;;;;;;;;5021913;28;8861;-78
2022/09/01 14:50:31;;;;;;;;;6.00;6.00;;;;;;;;5024446;28;8888;-75
2022/09/01 14:53:00;;;;;;;;;6.20;4.80;;;;;;;;5023412;28;8895;-75
2022/09/01 14:55:31;;;;;;;;;5.80;5.80;;;;;;;;5024188;28;8892;-75
2022/09/01 14:57:59;;;;;;;;;5.40;5.40;;;;;;;;5020822;28;8868;-74
2022/09/01 15:00:30;;;;;;;;;5.00;5.00;;;;;;;;5024103;28;8803;-72
2022/09/01 15:02:58;;;;;;;;;6.20;6.20;;;;;;;;5025187;28;8879;-73
2022/09/01 15:05:26;;;;;;;;;7.60;6.40;;;;;;;;5024637;28;8899;-73
2022/09/01 15:07:54;;;;;;;;;4.80;4.80;;;;;;;;5023871;28;9666;-72
2022/09/01 15:10:23;;;;;;;;;6.20;6.20;;;;;;;;5024395;28;9635;-72
2022/09/01 15:12:50;;;;;;;;;5.00;5.00;;;;;;;;5023906;28;8975;-72
2022/09/01 15:15:18;;;;;;;;;5.80;5.80;;;;;;;;5024170;28;8927;-72
2022/09/01 15:17:46;;;;;;;;;5.40;5.40;;;;;;;;5022170;28;8873;-73
2022/09/01 15:23:01;;;;;;;;;6.00;6.00;;;;;;;;5012932;28;8869;-76